Medina, Minnesota
Current Conditions -  °F | °C
As of 10:14 PM on Tuesday 27 Jan 2015 (Local Time) from KCFE Reporting Station
Overcast Overcast  
Wind Chill: 24°   Ceiling: 1100
Heat Index: 32°   Visibility: 10mi
Dew Point: 27°   Wind: 9mph
Humidity: 84%   Direction: 130°SE
Pressure: 30.11"   Gusts: NA
Location:  45.1045°N, 93.6647°W
Report Text: KCFE 280414Z AUTO 13008KT 10SM OVC011 00/M03 A3011 RMK AO2 T10021026
Loading
Personal Weather Stations






























Interactive Weather Map New forecast layout! Learn more

10-Day Weather Forecast

Advertisements
Track Severe Weather on mobile